Time;durP1;ratioP1;P1;durP2;ratioP2;P2;SDS_P1;SDS_P2;PMS_P1;PMS_P2;Temp;Humidity;BMP_temperature;BMP_pressure;BME280_temperature;BME280_humidity;BME280_pressure;Samples;Min_cycle;Max_cycle;Signal;HPM_P1;HPM_P2
2022/05/25 00:00:57;;;;;;;9.35;3.60;;;11.30;99.90;;;;;;5045015;28;20045;-80
2022/05/25 00:03:23;;;;;;;5.03;3.42;;;11.30;99.90;;;;;;5029829;28;20067;-79
2022/05/25 00:05:48;;;;;;;6.88;3.47;;;11.30;99.90;;;;;;5044979;28;20484;-80
2022/05/25 00:08:14;;;;;;;6.78;3.40;;;11.30;99.90;;;;;;5047725;28;20481;-79
2022/05/25 00:10:40;;;;;;;7.63;3.58;;;11.30;99.90;;;;;;5049437;28;20072;-80
2022/05/25 00:13:06;;;;;;;5.03;3.58;;;11.30;99.90;;;;;;5038085;28;20045;-79
2022/05/25 00:15:32;;;;;;;6.43;3.80;;;11.30;99.90;;;;;;5044250;28;20033;-80
2022/05/25 00:17:58;;;;;;;6.05;3.63;;;11.30;99.90;;;;;;5037870;28;20491;-79
2022/05/25 00:20:24;;;;;;;8.40;3.97;;;11.30;99.90;;;;;;5046158;28;20041;-78
2022/05/25 00:22:53;;;;;;;7.30;4.05;;;11.30;99.90;;;;;;5048998;28;20145;-79
2022/05/25 00:25:21;;;;;;;7.43;4.32;;;11.30;99.90;;;;;;5050669;28;20049;-80
2022/05/25 00:27:47;;;;;;;6.28;4.00;;;11.30;99.90;;;;;;5048221;28;20075;-80
2022/05/25 00:30:14;;;;;;;7.75;4.28;;;11.30;99.90;;;;;;5050070;28;20041;-79
2022/05/25 00:32:41;;;;;;;5.90;4.18;;;11.30;99.90;;;;;;5049544;28;20049;-79
2022/05/25 00:35:09;;;;;;;8.55;4.57;;;11.20;99.90;;;;;;5047303;28;20421;-80
2022/05/25 00:37:35;;;;;;;13.43;4.68;;;11.20;99.90;;;;;;5049051;28;20040;-79
2022/05/25 00:40:03;;;;;;;6.32;4.30;;;11.10;99.90;;;;;;5047815;28;20037;-79
2022/05/25 00:42:28;;;;;;;8.38;3.83;;;11.10;99.90;;;;;;5049118;28;20049;-79
2022/05/25 00:44:54;;;;;;;6.43;4.57;;;11.10;99.90;;;;;;5049403;28;20506;-80
2022/05/25 00:47:25;;;;;;;4.90;4.03;;;11.00;99.90;;;;;;5048740;28;20071;-81
2022/05/25 00:49:51;;;;;;;6.20;4.63;;;11.00;99.90;;;;;;5048089;28;20041;-80
2022/05/25 00:52:17;;;;;;;6.80;4.25;;;11.00;99.90;;;;;;5049017;28;20140;-80
2022/05/25 00:54:54;;;;;;;6.68;4.20;;;10.90;99.90;;;;;;5046373;28;20125;-79
2022/05/25 00:57:27;;;;;;;10.10;4.93;;;10.90;99.90;;;;;;5047877;28;20052;-79
2022/05/25 01:00:09;;;;;;;7.65;4.97;;;10.90;99.90;;;;;;5049099;28;20075;-79
2022/05/25 01:02:57;;;;;;;8.98;5.20;;;10.90;99.90;;;;;;5044224;28;20144;-80
2022/05/25 01:05:31;;;;;;;5.57;4.45;;;10.80;99.90;;;;;;5037028;28;20510;-78
2022/05/25 01:08:10;;;;;;;11.27;4.85;;;10.80;99.90;;;;;;5047033;28;20053;-79
2022/05/25 01:10:49;;;;;;;9.48;4.38;;;10.80;99.90;;;;;;5042458;28;20128;-78
2022/05/25 01:13:44;;;;;;;7.05;4.65;;;10.80;99.90;;;;;;5030228;28;20073;-78
2022/05/25 01:16:30;;;;;;;7.20;4.65;;;10.80;99.90;;;;;;5048193;28;20048;-78
2022/05/25 01:19:04;;;;;;;8.18;5.30;;;10.80;99.90;;;;;;5045658;28;20128;-78
2022/05/25 01:21:59;;;;;;;8.95;4.97;;;10.80;99.90;;;;;;5047056;28;20481;-79
2022/05/25 01:24:35;;;;;;;6.85;5.32;;;10.80;99.90;;;;;;5045545;28;20067;-79
2022/05/25 01:27:32;;;;;;;9.45;5.90;;;10.70;99.90;;;;;;5037820;28;20044;-79
2022/05/25 01:30:09;;;;;;;7.97;5.13;;;10.70;99.90;;;;;;5049060;28;20041;-79
2022/05/25 01:33:11;;;;;;;7.82;6.10;;;10.70;99.90;;;;;;5043438;28;20045;-78
2022/05/25 01:35:52;;;;;;;9.50;5.80;;;10.70;99.90;;;;;;5046811;28;20493;-79
2022/05/25 01:38:38;;;;;;;7.45;5.13;;;10.70;99.90;;;;;;5047369;28;20540;-80
2022/05/25 01:41:11;;;;;;;9.15;6.18;;;10.70;99.90;;;;;;5046854;28;20073;-81
2022/05/25 01:44:01;;;;;;;8.15;5.88;;;10.70;99.90;;;;;;5048758;28;20152;-82
2022/05/25 01:46:39;;;;;;;9.23;5.93;;;10.60;99.90;;;;;;5048406;28;20414;-80
2022/05/25 01:49:09;;;;;;;8.88;7.05;;;10.60;99.90;;;;;;5047502;28;20471;-80
2022/05/25 01:51:50;;;;;;;9.05;6.63;;;10.60;99.90;;;;;;5038863;28;20389;-81
2022/05/25 01:54:20;;;;;;;10.07;7.22;;;10.70;99.90;;;;;;5044986;28;20064;-81
2022/05/25 01:56:50;;;;;;;7.60;6.07;;;10.60;99.90;;;;;;5048482;28;20098;-81
2022/05/25 01:59:17;;;;;;;10.98;6.40;;;10.60;99.90;;;;;;5046765;28;20052;-80
2022/05/25 02:01:50;;;;;;;10.80;7.00;;;10.60;99.90;;;;;;5039086;28;20045;-80
2022/05/25 02:04:22;;;;;;;10.55;8.13;;;10.60;99.90;;;;;;5047990;28;20075;-80
2022/05/25 02:07:14;;;;;;;11.55;7.90;;;10.60;99.90;;;;;;5046916;28;20072;-81
2022/05/25 02:09:53;;;;;;;12.05;8.07;;;10.50;99.90;;;;;;5044214;28;20133;-80
2022/05/25 02:12:27;;;;;;;11.02;8.30;;;10.50;99.90;;;;;;5047786;28;20053;-81
2022/05/25 02:15:27;;;;;;;15.55;9.10;;;10.50;99.90;;;;;;5044915;28;20080;-81
2022/05/25 02:18:17;;;;;;;11.35;8.48;;;10.50;99.90;;;;;;5048559;28;20076;-80
2022/05/25 02:21:02;;;;;;;19.10;9.32;;;10.50;99.90;;;;;;5046707;28;20416;-79
2022/05/25 02:23:45;;;;;;;12.32;8.93;;;10.40;99.90;;;;;;5043105;28;20041;-81
2022/05/25 02:26:27;;;;;;;10.68;8.48;;;10.40;99.90;;;;;;5047178;28;20087;-79
2022/05/25 02:29:04;;;;;;;14.98;11.27;;;10.40;99.90;;;;;;5027280;28;20442;-80
2022/05/25 02:31:36;;;;;;;13.60;8.88;;;10.40;99.90;;;;;;5033361;28;20053;-81
2022/05/25 02:34:04;;;;;;;13.50;9.68;;;10.40;99.90;;;;;;5045707;28;20048;-81
2022/05/25 02:36:34;;;;;;;12.50;9.23;;;10.40;99.90;;;;;;5043227;28;20079;-79
2022/05/25 02:39:07;;;;;;;17.88;9.32;;;10.40;99.90;;;;;;5046857;28;20037;-79
2022/05/25 02:41:35;;;;;;;14.85;10.07;;;10.40;99.90;;;;;;5047159;28;20060;-80
2022/05/25 02:44:03;;;;;;;15.18;10.00;;;10.40;99.90;;;;;;5038208;28;20099;-80
2022/05/25 02:46:28;;;;;;;13.75;9.90;;;10.40;99.90;;;;;;5032976;28;20397;-79
2022/05/25 02:48:55;;;;;;;13.63;10.30;;;10.40;99.90;;;;;;5046275;28;20041;-81
2022/05/25 02:51:21;;;;;;;16.50;10.57;;;10.40;99.90;;;;;;5047227;28;20041;-80
2022/05/25 02:53:47;;;;;;;15.43;11.38;;;10.40;99.90;;;;;;5049532;28;20110;-80
2022/05/25 02:56:13;;;;;;;13.07;9.68;;;10.40;99.90;;;;;;5051328;28;20077;-80
2022/05/25 02:58:38;;;;;;;15.63;10.88;;;10.40;99.90;;;;;;5052035;28;20548;-80
2022/05/25 03:01:05;;;;;;;13.73;11.02;;;10.50;99.90;;;;;;5051261;28;20499;-80
2022/05/25 03:03:35;;;;;;;16.50;10.60;;;10.40;99.90;;;;;;5049390;28;20420;-80
2022/05/25 03:06:02;;;;;;;15.85;10.90;;;10.50;99.90;;;;;;5034633;28;20051;-80
2022/05/25 03:08:28;;;;;;;14.25;11.52;;;10.50;99.90;;;;;;5031277;28;20810;-80
2022/05/25 03:10:53;;;;;;;20.05;11.93;;;10.50;99.90;;;;;;5049824;28;20099;-81
2022/05/25 03:13:19;;;;;;;15.45;11.23;;;10.50;99.90;;;;;;5049434;28;20124;-80
2022/05/25 03:15:45;;;;;;;17.77;11.75;;;10.50;99.90;;;;;;5050965;28;20037;-81
2022/05/25 03:18:11;;;;;;;16.13;10.20;;;10.50;99.90;;;;;;5051661;28;20403;-80
2022/05/25 03:20:37;;;;;;;19.83;12.93;;;10.50;99.90;;;;;;5051332;28;20051;-80
2022/05/25 03:23:03;;;;;;;17.25;11.85;;;10.50;99.90;;;;;;5048383;28;20515;-80
2022/05/25 03:25:29;;;;;;;19.80;11.52;;;10.50;99.90;;;;;;5034257;28;20342;-80
2022/05/25 03:27:55;;;;;;;16.63;11.45;;;10.50;99.90;;;;;;5037852;28;20037;-80
2022/05/25 03:30:21;;;;;;;14.98;11.20;;;10.50;99.90;;;;;;5049280;28;20517;-80
2022/05/25 03:32:47;;;;;;;18.80;11.57;;;10.50;99.90;;;;;;5050808;28;20389;-81
2022/05/25 03:35:14;;;;;;;20.02;11.45;;;10.50;99.90;;;;;;5051274;28;20126;-79
2022/05/25 03:37:39;;;;;;;16.27;11.63;;;10.50;99.90;;;;;;5044748;28;20151;-81
2022/05/25 03:40:09;;;;;;;14.50;10.43;;;10.50;99.90;;;;;;5051158;28;20125;-80
2022/05/25 03:42:35;;;;;;;13.23;10.77;;;10.50;99.90;;;;;;5044535;28;20135;-80
2022/05/25 03:45:04;;;;;;;17.60;11.23;;;10.50;99.90;;;;;;5054632;28;20056;-80
2022/05/25 03:47:33;;;;;;;13.95;11.30;;;10.50;99.90;;;;;;5044904;28;20167;-80
2022/05/25 03:49:59;;;;;;;18.30;11.65;;;10.50;99.90;;;;;;5046406;28;20041;-80
2022/05/25 03:52:26;;;;;;;18.05;11.63;;;10.50;99.90;;;;;;5048736;28;20055;-81
2022/05/25 03:54:52;;;;;;;16.35;11.50;;;10.50;99.90;;;;;;5038130;28;20050;-80
2022/05/25 03:57:18;;;;;;;15.23;11.13;;;10.50;99.90;;;;;;5030707;28;20060;-80
2022/05/25 03:59:45;;;;;;;17.75;10.70;;;10.50;99.90;;;;;;5041333;28;20144;-80
2022/05/25 04:02:11;;;;;;;16.88;11.45;;;10.50;99.90;;;;;;5049178;28;20347;-82
2022/05/25 04:04:36;;;;;;;15.35;11.35;;;10.40;99.90;;;;;;5049811;28;20045;-81
2022/05/25 04:07:02;;;;;;;23.88;11.52;;;10.40;99.90;;;;;;5048543;28;20084;-80
2022/05/25 04:09:28;;;;;;;17.30;12.45;;;10.40;99.90;;;;;;5050254;28;20080;-81
2022/05/25 04:11:54;;;;;;;15.48;11.70;;;10.40;99.90;;;;;;5049022;28;20392;-80
2022/05/25 04:14:19;;;;;;;17.20;11.55;;;10.50;99.90;;;;;;5036762;28;20041;-80
2022/05/25 04:16:45;;;;;;;17.70;11.43;;;10.50;99.90;;;;;;5035348;28;20050;-80
2022/05/25 04:19:12;;;;;;;16.13;11.90;;;10.40;99.90;;;;;;5050024;28;20033;-81
2022/05/25 04:21:37;;;;;;;17.88;11.38;;;10.40;99.90;;;;;;5044259;28;20037;-78
2022/05/25 04:24:04;;;;;;;17.15;12.07;;;10.40;99.90;;;;;;5048657;28;20658;-81
2022/05/25 04:26:30;;;;;;;23.02;11.93;;;10.50;99.90;;;;;;5048988;28;20037;-80
2022/05/25 04:28:56;;;;;;;14.48;11.05;;;10.50;99.90;;;;;;5050085;28;20438;-80
2022/05/25 04:31:22;;;;;;;15.88;10.80;;;10.50;99.90;;;;;;5047880;28;20040;-80
2022/05/25 04:33:48;;;;;;;21.30;11.48;;;10.50;99.90;;;;;;5048539;28;20053;-80
2022/05/25 04:36:13;;;;;;;15.23;10.52;;;10.50;99.90;;;;;;5047451;28;20048;-79
2022/05/25 04:38:39;;;;;;;16.35;10.57;;;10.60;99.90;;;;;;5050194;28;20429;-80
2022/05/25 04:41:05;;;;;;;16.88;11.07;;;10.60;99.90;;;;;;5048444;28;20064;-79
2022/05/25 04:43:31;;;;;;;15.30;10.43;;;10.70;99.90;;;;;;5050357;28;20432;-81
2022/05/25 04:45:59;;;;;;;20.80;12.05;;;10.70;99.90;;;;;;5048568;28;20469;-80
2022/05/25 04:48:25;;;;;;;16.27;10.07;;;10.70;99.90;;;;;;5049563;28;20472;-80
2022/05/25 04:50:53;;;;;;;15.20;10.77;;;10.70;99.90;;;;;;5047200;28;20075;-79
2022/05/25 04:53:20;;;;;;;13.93;10.80;;;10.80;99.90;;;;;;5048505;28;20060;-80
2022/05/25 04:58:43;;;;;;;16.05;10.90;;;10.90;99.90;;;;;;5049223;28;20056;-80
2022/05/25 05:01:10;;;;;;;13.65;8.98;;;10.90;99.90;;;;;;5044380;28;20135;-80
2022/05/25 05:03:36;;;;;;;14.05;10.38;;;10.90;99.90;;;;;;5028040;28;20457;-81
2022/05/25 05:06:04;;;;;;;10.73;9.10;;;11.00;99.90;;;;;;5029865;28;20064;-79
2022/05/25 05:08:29;;;;;;;15.93;9.70;;;11.00;99.90;;;;;;5046687;28;20548;-81
2022/05/25 05:10:55;;;;;;;13.18;9.15;;;11.10;99.90;;;;;;5048820;28;20037;-79
2022/05/25 05:13:21;;;;;;;15.00;9.48;;;11.10;99.90;;;;;;5081182;28;20117;-79
2022/05/25 05:15:54;;;;;;;12.38;9.65;;;11.10;99.90;;;;;;5047413;28;20045;-80
2022/05/25 05:18:23;;;;;;;14.65;9.20;;;11.20;99.90;;;;;;5052500;28;20045;-78
2022/05/25 05:20:49;;;;;;;15.07;9.68;;;11.20;99.90;;;;;;5044256;28;20041;-79
2022/05/25 05:23:15;;;;;;;16.80;10.55;;;11.20;99.90;;;;;;5032817;28;20060;-79
2022/05/25 05:25:41;;;;;;;13.85;9.43;;;11.30;99.90;;;;;;5028326;28;20615;-80
2022/05/25 05:28:08;;;;;;;11.40;9.05;;;11.30;99.90;;;;;;5041292;28;20142;-79
2022/05/25 05:30:38;;;;;;;15.85;9.25;;;11.40;99.90;;;;;;5047014;28;20468;-79
2022/05/25 05:33:04;;;;;;;13.50;8.73;;;11.40;99.90;;;;;;5027225;28;20041;-78
2022/05/25 05:35:30;;;;;;;22.27;10.13;;;11.50;99.90;;;;;;5038471;28;20049;-80
2022/05/25 05:37:56;;;;;;;13.10;9.23;;;11.50;99.90;;;;;;5047418;28;20048;-80
2022/05/25 05:40:23;;;;;;;13.93;9.07;;;11.60;99.90;;;;;;5045717;28;20068;-79
2022/05/25 05:42:52;;;;;;;15.88;9.13;;;11.60;99.90;;;;;;5032167;28;20476;-78
2022/05/25 05:45:21;;;;;;;13.98;8.68;;;11.60;99.90;;;;;;5048256;28;20136;-78
2022/05/25 05:47:54;;;;;;;13.43;8.70;;;11.70;99.90;;;;;;5048043;28;20183;-78
2022/05/25 05:50:21;;;;;;;15.70;9.73;;;11.80;99.90;;;;;;5048967;28;20102;-79
2022/05/25 05:52:49;;;;;;;13.40;9.05;;;11.80;99.90;;;;;;5043651;28;20056;-77
2022/05/25 05:55:15;;;;;;;13.07;8.32;;;11.90;99.90;;;;;;5049295;28;20048;-79
2022/05/25 05:57:40;;;;;;;15.88;8.20;;;11.90;99.90;;;;;;5046947;28;20098;-79
2022/05/25 06:00:09;;;;;;;19.45;8.45;;;12.00;99.90;;;;;;5031342;28;20124;-76
2022/05/25 06:02:34;;;;;;;14.70;8.88;;;12.10;99.90;;;;;;5046772;28;20075;-78
2022/05/25 06:05:00;;;;;;;11.63;7.65;;;12.10;99.90;;;;;;5048460;28;20400;-78
2022/05/25 06:07:26;;;;;;;17.40;7.93;;;12.20;99.90;;;;;;5043745;28;20040;-79
2022/05/25 06:09:51;;;;;;;15.68;7.93;;;12.30;99.90;;;;;;5042130;28;20042;-77
2022/05/25 06:12:17;;;;;;;15.60;8.10;;;12.30;99.90;;;;;;5046727;28;20053;-77
2022/05/25 06:14:43;;;;;;;13.50;7.95;;;12.40;99.90;;;;;;5046217;28;20124;-80
2022/05/25 06:19:53;;;;;;;11.32;8.15;;;12.50;99.90;;;;;;5046951;28;20132;-80
2022/05/25 06:22:19;;;;;;;10.20;7.05;;;12.50;99.90;;;;;;5046995;28;20207;-79
2022/05/25 06:24:48;;;;;;;10.77;7.47;;;12.60;99.90;;;;;;5047466;28;20457;-79
2022/05/25 06:27:14;;;;;;;12.27;7.40;;;12.70;99.90;;;;;;5032120;28;20045;-77
2022/05/25 06:29:47;;;;;;;9.85;7.32;;;12.80;99.90;;;;;;5049393;28;20574;-78
2022/05/25 06:32:13;;;;;;;11.13;6.68;;;12.80;99.90;;;;;;5049547;28;20045;-80
2022/05/25 06:34:40;;;;;;;11.75;6.40;;;12.90;99.90;;;;;;5050639;28;20132;-80
2022/05/25 06:37:07;;;;;;;11.45;5.88;;;13.00;99.90;;;;;;5051403;28;20037;-79
2022/05/25 06:39:37;;;;;;;14.38;5.85;;;13.00;99.90;;;;;;5043076;28;20068;-80
2022/05/25 06:42:04;;;;;;;11.57;5.93;;;13.10;99.90;;;;;;5048215;28;20037;-78
2022/05/25 06:44:29;;;;;;;12.70;6.53;;;13.20;99.90;;;;;;5052080;28;20059;-79
2022/05/25 06:46:55;;;;;;;9.90;5.63;;;13.30;99.90;;;;;;5038360;28;20079;-78
2022/05/25 06:49:21;;;;;;;8.10;5.43;;;13.30;99.90;;;;;;5048805;28;20072;-79
2022/05/25 06:51:47;;;;;;;9.70;5.50;;;13.40;99.90;;;;;;5049370;28;20079;-78
2022/05/25 06:54:17;;;;;;;8.30;5.20;;;13.40;99.90;;;;;;5045417;28;20064;-80
2022/05/25 06:56:42;;;;;;;8.52;5.15;;;13.50;99.90;;;;;;5052113;28;20124;-79
2022/05/25 06:59:09;;;;;;;8.70;4.47;;;13.60;99.90;;;;;;5050099;28;20127;-79
2022/05/25 07:01:36;;;;;;;10.05;4.75;;;13.70;99.90;;;;;;5068966;28;20044;-78
2022/05/25 07:04:03;;;;;;;9.30;4.88;;;13.70;99.90;;;;;;5044359;28;20062;-80
2022/05/25 07:06:28;;;;;;;15.00;4.95;;;13.80;99.90;;;;;;5052567;28;20056;-79
2022/05/25 07:08:54;;;;;;;8.80;4.32;;;13.80;99.90;;;;;;5052999;28;20389;-81
2022/05/25 07:11:21;;;;;;;7.35;4.63;;;13.90;99.90;;;;;;5048174;28;20045;-78
2022/05/25 07:13:47;;;;;;;9.98;4.63;;;14.00;99.90;;;;;;5046662;28;20044;-79
2022/05/25 07:16:15;;;;;;;6.68;4.15;;;14.00;99.90;;;;;;5050001;28;20041;-78
2022/05/25 07:18:43;;;;;;;7.00;4.45;;;14.10;99.90;;;;;;5048694;28;20044;-78
2022/05/25 07:21:12;;;;;;;8.30;4.82;;;14.10;99.90;;;;;;5040965;28;20406;-79
2022/05/25 07:23:39;;;;;;;6.88;3.75;;;14.30;99.90;;;;;;5042233;28;20401;-79
2022/05/25 07:26:08;;;;;;;9.50;4.65;;;14.30;99.90;;;;;;5041060;28;20354;-79
2022/05/25 07:28:35;;;;;;;10.15;4.82;;;14.30;99.90;;;;;;5049555;28;20041;-78
2022/05/25 07:31:08;;;;;;;8.73;4.00;;;14.40;99.90;;;;;;5043253;28;20144;-78
2022/05/25 07:33:35;;;;;;;7.97;4.60;;;14.50;99.90;;;;;;5045058;28;20073;-79
2022/05/25 07:36:02;;;;;;;9.50;4.07;;;14.60;99.90;;;;;;5047952;28;20070;-79
2022/05/25 07:38:29;;;;;;;7.00;3.63;;;14.60;99.90;;;;;;5046765;28;20041;-78
2022/05/25 07:40:56;;;;;;;9.75;3.30;;;14.70;99.90;;;;;;5043123;28;20678;-78
2022/05/25 07:43:25;;;;;;;10.25;3.70;;;14.70;99.90;;;;;;5080717;28;20041;-78
2022/05/25 07:45:50;;;;;;;6.35;3.60;;;14.80;99.90;;;;;;5046355;28;20049;-78
2022/05/25 07:48:16;;;;;;;7.80;3.13;;;14.90;99.90;;;;;;5082530;28;20111;-78
2022/05/25 07:50:43;;;;;;;7.05;3.30;;;14.80;99.90;;;;;;5037638;28;20406;-78
2022/05/25 07:55:57;;;;;;;7.32;3.38;;;14.90;99.90;;;;;;5053771;28;20071;-77
2022/05/25 07:58:22;;;;;;;4.70;3.33;;;15.00;99.90;;;;;;5050585;28;20146;-79
2022/05/25 08:00:53;;;;;;;7.32;3.45;;;15.10;99.90;;;;;;5046606;28;20052;-78
2022/05/25 08:06:04;;;;;;;9.43;3.70;;;15.30;99.90;;;;;;5047120;28;20095;-78
2022/05/25 08:08:30;;;;;;;9.68;4.20;;;15.30;99.90;;;;;;5046400;28;20049;-76
2022/05/25 08:11:16;;;;;;;10.73;3.53;;;15.30;99.90;;;;;;5048145;28;20218;-78
2022/05/25 08:13:45;;;;;;;9.23;3.25;;;15.40;99.90;;;;;;5047261;28;20044;-77
2022/05/25 08:16:11;;;;;;;5.55;3.60;;;15.50;99.90;;;;;;5042007;28;20034;-78
2022/05/25 08:18:37;;;;;;;6.80;3.80;;;15.80;99.90;;;;;;5033548;28;20045;-78
2022/05/25 08:21:04;;;;;;;9.57;3.45;;;15.60;99.90;;;;;;5030891;28;20041;-79
2022/05/25 08:23:30;;;;;;;6.97;3.00;;;15.70;99.90;;;;;;5047692;28;20397;-78
2022/05/25 08:25:55;;;;;;;5.72;3.10;;;15.80;99.90;;;;;;5039428;28;20037;-78
2022/05/25 08:28:21;;;;;;;5.45;3.33;;;15.80;99.90;;;;;;5044958;28;20453;-78
2022/05/25 08:30:46;;;;;;;6.63;3.13;;;15.80;99.90;;;;;;5046450;28;20144;-78
2022/05/25 08:33:16;;;;;;;6.22;3.40;;;15.80;99.90;;;;;;5048208;28;20048;-79
2022/05/25 08:35:43;;;;;;;6.63;3.03;;;15.80;99.90;;;;;;5049145;28;20041;-79
2022/05/25 08:38:08;;;;;;;6.65;3.10;;;15.80;99.90;;;;;;5049638;28;20505;-77
2022/05/25 08:40:34;;;;;;;5.75;3.67;;;15.90;99.90;;;;;;5031610;28;20044;-79
2022/05/25 08:43:11;;;;;;;12.80;4.10;;;15.90;99.90;;;;;;5029734;28;20052;-78
2022/05/25 08:45:42;;;;;;;7.63;3.20;;;16.00;99.90;;;;;;5046342;28;20056;-77
2022/05/25 08:48:12;;;;;;;5.22;2.88;;;16.00;99.90;;;;;;5048928;28;20044;-78
2022/05/25 08:50:38;;;;;;;4.78;3.00;;;16.10;99.90;;;;;;5048569;28;20131;-77
2022/05/25 08:53:07;;;;;;;4.95;2.80;;;16.10;99.90;;;;;;5046757;28;20400;-76
2022/05/25 08:56:01;;;;;;;7.88;2.60;;;16.20;99.90;;;;;;5047599;28;20059;-78
2022/05/25 08:58:39;;;;;;;6.47;2.70;;;16.30;99.90;;;;;;5048040;28;20512;-77
2022/05/25 09:01:06;;;;;;;4.95;2.80;;;16.30;99.90;;;;;;5044973;28;20055;-77
2022/05/25 09:03:48;;;;;;;5.70;2.65;;;16.30;99.90;;;;;;5047667;28;20083;-77
2022/05/25 09:06:47;;;;;;;6.03;2.65;;;16.30;99.90;;;;;;5046724;28;20522;-79
2022/05/25 09:09:23;;;;;;;5.18;2.28;;;16.40;99.90;;;;;;5034690;28;20045;-77
2022/05/25 09:11:56;;;;;;;10.05;2.33;;;16.40;99.90;;;;;;5040687;28;20044;-79
2022/05/25 09:14:33;;;;;;;3.47;2.10;;;16.40;99.90;;;;;;5049405;28;20053;-76
2022/05/25 09:17:11;;;;;;;7.35;2.22;;;16.60;99.90;;;;;;5038533;28;20403;-77
2022/05/25 09:19:41;;;;;;;6.28;3.28;;;16.50;99.90;;;;;;5039874;28;20071;-76
2022/05/25 09:22:21;;;;;;;3.75;2.50;;;16.60;99.90;;;;;;5045848;28;20112;-77
2022/05/25 09:24:48;;;;;;;5.72;2.63;;;16.60;99.90;;;;;;5048053;28;20049;-78
2022/05/25 09:27:16;;;;;;;7.50;3.30;;;16.60;99.90;;;;;;5047190;28;20437;-79
2022/05/25 09:29:42;;;;;;;6.50;2.70;;;16.60;99.90;;;;;;5056935;28;20041;-77
2022/05/25 09:32:42;;;;;;;8.00;2.38;;;16.60;99.90;;;;;;5030513;28;20405;-77
2022/05/25 09:35:11;;;;;;;6.05;2.90;;;16.70;99.90;;;;;;5059190;28;20124;-76
2022/05/25 09:37:49;;;;;;;3.25;2.13;;;16.70;99.90;;;;;;5046698;28;20045;-79
2022/05/25 09:40:21;;;;;;;11.73;2.88;;;16.80;99.90;;;;;;5043370;28;20088;-77
2022/05/25 09:42:49;;;;;;;;;;;16.80;99.90;;;;;;5048183;28;20071;-77
2022/05/25 09:45:15;;;;;;;4.25;2.17;;;16.80;99.90;;;;;;5049420;28;19921;-77
2022/05/25 09:47:47;;;;;;;8.85;2.30;;;16.90;99.90;;;;;;5041417;28;20102;-76
2022/05/25 09:50:35;;;;;;;4.60;2.03;;;16.90;99.90;;;;;;5046386;28;20445;-75
2022/05/25 09:53:09;;;;;;;5.70;1.90;;;16.90;99.90;;;;;;5047925;28;20499;-79
2022/05/25 09:55:42;;;;;;;3.70;2.10;;;16.80;99.90;;;;;;5046598;28;20052;-79
2022/05/25 09:58:22;;;;;;;5.82;2.40;;;16.80;99.90;;;;;;5035837;28;20053;-79
2022/05/25 10:01:02;;;;;;;5.50;2.10;;;16.80;99.90;;;;;;5028706;28;20041;-75
2022/05/25 10:03:35;;;;;;;4.63;2.30;;;16.80;99.90;;;;;;5048301;28;20044;-78
2022/05/25 10:06:35;;;;;;;7.72;2.40;;;16.80;99.90;;;;;;5048070;28;20128;-77
2022/05/25 10:09:20;;;;;;;4.72;2.28;;;16.80;99.90;;;;;;5047546;28;20084;-78
2022/05/25 10:11:50;;;;;;;6.22;2.50;;;16.90;99.90;;;;;;5046347;28;20045;-77
2022/05/25 10:14:26;;;;;;;3.58;2.50;;;16.90;99.90;;;;;;5046595;28;20119;-75
2022/05/25 10:16:55;;;;;;;4.60;2.97;;;16.90;99.90;;;;;;5045743;28;20118;-76
2022/05/25 10:19:22;;;;;;;5.57;2.63;;;16.90;99.90;;;;;;5045545;28;20127;-76
2022/05/25 10:21:59;;;;;;;4.72;2.42;;;16.90;99.90;;;;;;5045470;28;20056;-76
2022/05/25 10:24:39;;;;;;;5.70;2.10;;;16.90;99.90;;;;;;5047008;28;20179;-77
2022/05/25 10:27:19;;;;;;;5.53;2.40;;;16.90;99.90;;;;;;5042196;28;20041;-78
2022/05/25 10:38:30;;;;;;;9.63;3.30;;;16.70;99.90;;;;;;5048151;28;20079;-76
2022/05/25 10:41:37;;;;;;;7.13;2.67;;;16.60;99.90;;;;;;5038961;28;20461;-78
2022/05/25 10:43:49;;;;;;;6.00;2.58;;;16.50;99.90;;;;;;5027358;28;20056;-76
2022/05/25 10:46:16;;;;;;;3.92;2.42;;;16.50;99.90;;;;;;5028179;28;20187;-76
2022/05/25 10:49:26;;;;;;;7.50;2.50;;;16.60;99.90;;;;;;5027390;28;20046;-75
2022/05/25 10:52:02;;;;;;;5.90;2.97;;;16.60;99.90;;;;;;5045960;28;20057;-77
2022/05/25 10:54:49;;;;;;;6.18;2.88;;;16.60;99.90;;;;;;5047796;28;20049;-76
2022/05/25 10:57:33;;;;;;;6.75;2.80;;;16.60;99.90;;;;;;5046356;28;20041;-78
2022/05/25 11:00:11;;;;;;;6.68;2.95;;;16.70;99.90;;;;;;5034616;28;20279;-78
2022/05/25 11:03:15;;;;;;;4.50;2.95;;;16.60;99.90;;;;;;5030610;28;20504;-76
2022/05/25 11:06:07;;;;;;;7.82;3.20;;;16.60;99.90;;;;;;5024097;28;20065;-76
2022/05/25 11:09:00;;;;;;;5.93;3.03;;;16.50;99.90;;;;;;5035707;28;20536;-76
2022/05/25 11:11:48;;;;;;;8.40;2.80;;;16.50;99.90;;;;;;5048214;28;20033;-76
2022/05/25 11:14:14;;;;;;;6.97;4.18;;;16.40;99.90;;;;;;5057823;28;20373;-78
2022/05/25 11:16:59;;;;;;;7.15;3.58;;;16.30;99.90;;;;;;5050323;28;20076;-79
2022/05/25 11:19:39;;;;;;;11.13;4.68;;;16.20;99.90;;;;;;5051170;28;20040;-79
2022/05/25 11:22:19;;;;;;;8.73;3.85;;;16.00;99.90;;;;;;5046957;28;20401;-79
2022/05/25 11:24:48;;;;;;;16.23;4.32;;;15.80;99.90;;;;;;5051456;28;20041;-81
2022/05/25 11:27:43;;;;;;;8.27;3.55;;;15.70;99.90;;;;;;5049134;28;20037;-82
2022/05/25 11:30:37;;;;;;;8.15;3.20;;;15.60;99.90;;;;;;5044158;28;20421;-81
2022/05/25 11:33:19;;;;;;;9.80;3.30;;;15.60;99.90;;;;;;5032470;28;20088;-81
2022/05/25 11:36:15;;;;;;;6.38;3.53;;;15.70;99.90;;;;;;5031672;28;20089;-81
2022/05/25 11:39:03;;;;;;;10.30;3.47;;;15.90;99.90;;;;;;5034705;28;20053;-81
2022/05/25 11:41:53;;;;;;;6.75;3.63;;;16.10;99.90;;;;;;5045963;28;20033;-81
2022/05/25 11:44:37;;;;;;;4.82;3.15;;;16.20;99.90;;;;;;5041319;28;20045;-82
2022/05/25 11:47:34;;;;;;;9.57;3.30;;;16.20;99.90;;;;;;5051180;28;20052;-82
2022/05/25 11:50:20;;;;;;;7.03;3.28;;;16.30;99.90;;;;;;5014828;28;20163;-81
2022/05/25 11:53:12;;;;;;;4.65;3.30;;;16.40;99.90;;;;;;5028402;28;20057;-79
2022/05/25 11:55:47;;;;;;;5.47;3.83;;;16.50;99.90;;;;;;5038080;28;20504;-82
2022/05/25 11:58:30;;;;;;;6.47;3.15;;;16.60;99.90;;;;;;5040599;28;20128;-81
2022/05/25 12:01:28;;;;;;;7.70;4.38;;;16.80;99.90;;;;;;5031203;28;20409;-81
2022/05/25 12:04:17;;;;;;;7.15;4.57;;;16.90;99.90;;;;;;5006926;28;20136;-81
2022/05/25 12:06:50;;;;;;;7.45;4.95;;;17.00;99.90;;;;;;5028444;28;20053;-81
2022/05/25 12:09:30;;;;;;;9.40;5.32;;;17.10;99.90;;;;;;5031321;28;20143;-82
2022/05/25 12:12:03;;;;;;;9.85;5.43;;;17.00;99.90;;;;;;5030019;28;20052;-80
2022/05/25 12:14:50;;;;;;;6.75;4.97;;;16.80;99.90;;;;;;5037332;28;20120;-78
2022/05/25 12:17:30;;;;;;;9.68;5.32;;;16.60;99.90;;;;;;5049571;28;20473;-80
2022/05/25 12:20:00;;;;;;;9.50;4.75;;;16.40;99.90;;;;;;5049590;28;20128;-81
2022/05/25 12:22:33;;;;;;;7.73;4.07;;;16.40;99.90;;;;;;5047869;28;20068;-80
2022/05/25 12:25:04;;;;;;;4.57;2.30;;;16.40;99.90;;;;;;5047861;28;20541;-80
2022/05/25 12:27:48;;;;;;;4.45;1.67;;;16.40;99.90;;;;;;5049883;28;20194;-80
2022/05/25 12:30:20;;;;;;;6.47;2.25;;;16.50;99.90;;;;;;5049997;28;20469;-78
2022/05/25 12:32:46;;;;;;;6.35;2.50;;;16.60;99.90;;;;;;5049145;28;20095;-81
2022/05/25 12:35:15;;;;;;;4.35;2.50;;;16.80;99.90;;;;;;5050718;28;20440;-79
2022/05/25 12:37:44;;;;;;;4.28;2.35;;;16.90;99.90;;;;;;5050877;28;20136;-80
2022/05/25 12:40:34;;;;;;;10.52;2.70;;;17.00;99.90;;;;;;5049725;28;20077;-81
2022/05/25 12:42:59;;;;;;;5.22;2.20;;;17.10;99.90;;;;;;5036776;28;20045;-77
2022/05/25 12:48:36;;;;;;;10.73;2.47;;;17.20;99.90;;;;;;5041926;28;20085;-80
2022/05/25 12:51:08;;;;;;;6.93;2.50;;;17.20;99.90;;;;;;5050095;28;20051;-81
2022/05/25 12:53:47;;;;;;;10.30;2.58;;;17.10;99.90;;;;;;5048292;28;20056;-79
2022/05/25 12:56:18;;;;;;;12.25;1.77;;;17.10;99.90;;;;;;5049900;28;20041;-79
2022/05/25 12:58:47;;;;;;;;;;;17.10;99.90;;;;;;5050652;28;20052;-78
2022/05/25 13:01:21;;;;;;;4.63;1.17;;;17.10;99.90;;;;;;5047612;28;19924;-77
2022/05/25 13:03:47;;;;;;;8.77;1.38;;;17.30;99.90;;;;;;5048968;28;20472;-80
2022/05/25 13:06:17;;;;;;;3.72;1.00;;;17.30;99.90;;;;;;5047131;28;20131;-78
2022/05/25 13:08:45;;;;;;;12.70;1.00;;;17.50;99.90;;;;;;5048174;28;20056;-78
2022/05/25 13:11:42;;;;;;;2.38;0.80;;;17.70;98.70;;;;;;5049596;28;20052;-79
2022/05/25 13:14:16;;;;;;;4.78;1.00;;;17.80;98.60;;;;;;5049192;28;20443;-77
2022/05/25 13:16:48;;;;;;;4.60;0.85;;;17.90;97.30;;;;;;5049429;28;20048;-77
2022/05/25 13:19:32;;;;;;;7.75;1.00;;;18.00;96.70;;;;;;5049243;28;20072;-77
2022/05/25 13:22:02;;;;;;;1.65;0.60;;;18.10;96.30;;;;;;5045951;28;20145;-75
2022/05/25 13:25:05;;;;;;;6.88;1.20;;;18.10;95.70;;;;;;5048210;28;20408;-76
2022/05/25 13:27:58;;;;;;;6.88;1.25;;;18.10;96.20;;;;;;5047230;28;20160;-77
2022/05/25 13:30:38;;;;;;;6.15;1.15;;;18.20;95.30;;;;;;5047928;28;20052;-76